createdAt,value
2022-09-07T00:01:15.743Z,94113.00
2022-09-07T00:03:44.830Z,94102.00
2022-09-07T00:06:17.258Z,94096.00
2022-09-07T00:08:44.349Z,94101.00
2022-09-07T00:11:15.304Z,94096.00
2022-09-07T00:13:49.336Z,94096.00
2022-09-07T00:16:30.086Z,94097.00
2022-09-07T00:19:00.273Z,94101.00
2022-09-07T00:21:30.302Z,94106.00
2022-09-07T00:23:58.497Z,94097.00
2022-09-07T00:26:29.122Z,94106.00
2022-09-07T00:29:02.014Z,94107.00
2022-09-07T00:31:30.306Z,94106.00
2022-09-07T00:34:02.387Z,94103.00
2022-09-07T00:36:34.506Z,94101.00
2022-09-07T00:39:04.548Z,94103.00
2022-09-07T00:41:31.801Z,94094.00
2022-09-07T00:44:38.778Z,94098.00
2022-09-07T00:47:21.406Z,94090.00
2022-09-07T00:49:56.752Z,94100.00
2022-09-07T00:52:26.397Z,94095.00
2022-09-07T00:55:01.262Z,94096.00
2022-09-07T00:57:31.309Z,94090.00
2022-09-07T00:59:59.217Z,94095.00
2022-09-07T01:02:29.041Z,94094.00
2022-09-07T01:05:18.707Z,94096.00
2022-09-07T01:07:46.842Z,94097.00
2022-09-07T01:10:14.332Z,94106.00
2022-09-07T01:12:43.536Z,94103.00
2022-09-07T01:15:10.977Z,94098.00
2022-09-07T01:17:55.849Z,94097.00
2022-09-07T01:20:43.097Z,94100.00
2022-09-07T01:24:03.518Z,94105.00
2022-09-07T01:27:08.655Z,94105.00
2022-09-07T01:29:59.691Z,94107.00
2022-09-07T01:33:30.286Z,94113.00
2022-09-07T01:36:23.149Z,94115.00
2022-09-07T01:39:03.256Z,94114.00
2022-09-07T01:41:44.220Z,94103.00
2022-09-07T01:44:18.379Z,94118.00
2022-09-07T01:47:14.087Z,94109.00
2022-09-07T01:50:23.863Z,94105.00
2022-09-07T01:53:28.520Z,94115.00
2022-09-07T01:56:15.032Z,94110.00
2022-09-07T01:58:58.405Z,94104.00
2022-09-07T02:01:41.499Z,94105.00
2022-09-07T02:04:38.638Z,94123.00
2022-09-07T02:07:27.533Z,94115.00
2022-09-07T02:10:22.224Z,94101.00
2022-09-07T02:13:06.842Z,94102.00
2022-09-07T02:15:49.434Z,94091.00
2022-09-07T02:18:19.216Z,94076.00
2022-09-07T02:20:54.352Z,94090.00
2022-09-07T02:23:31.870Z,94080.00
2022-09-07T02:26:06.106Z,94089.00
2022-09-07T02:28:36.054Z,94090.00
2022-09-07T02:31:03.203Z,94091.00
2022-09-07T02:33:30.824Z,94098.00
2022-09-07T02:35:58.447Z,94098.00
2022-09-07T02:38:26.027Z,94099.00
2022-09-07T02:40:55.751Z,94105.00
2022-09-07T02:43:25.019Z,94101.00
2022-09-07T02:46:24.996Z,94103.00
2022-09-07T02:49:27.079Z,94106.00
2022-09-07T02:52:27.623Z,94109.00
2022-09-07T02:55:42.969Z,94106.00
2022-09-07T02:58:43.330Z,94115.00
2022-09-07T03:01:51.149Z,94113.00
2022-09-07T03:04:30.114Z,94113.00
2022-09-07T03:07:10.382Z,94115.00
2022-09-07T03:09:45.989Z,94116.00
2022-09-07T03:12:13.057Z,94107.00
2022-09-07T03:14:42.139Z,94112.00
2022-09-07T03:17:09.604Z,94117.00
2022-09-07T03:19:37.350Z,94119.00
2022-09-07T03:22:05.995Z,94115.00
2022-09-07T03:24:33.433Z,94119.00
2022-09-07T03:27:01.134Z,94117.00
2022-09-07T03:29:28.136Z,94122.00
2022-09-07T03:31:55.211Z,94104.00
2022-09-07T03:34:22.180Z,94101.00
2022-09-07T03:36:49.124Z,94116.00
2022-09-07T03:39:16.169Z,94124.00
2022-09-07T03:41:43.152Z,94116.00
2022-09-07T03:44:12.761Z,94117.00
2022-09-07T03:46:39.759Z,94115.00
2022-09-07T03:49:09.742Z,94109.00
2022-09-07T03:51:36.662Z,94120.00
2022-09-07T03:54:06.355Z,94122.00
2022-09-07T03:56:35.908Z,94124.00
2022-09-07T03:59:05.853Z,94129.00
2022-09-07T04:01:36.307Z,94124.00
2022-09-07T04:04:05.778Z,94131.00
2022-09-07T04:09:19.078Z,94157.00
2022-09-07T04:11:46.146Z,94149.00
2022-09-07T04:14:13.110Z,94160.00
2022-09-07T04:16:40.203Z,94162.00
2022-09-07T04:19:07.206Z,94166.00
2022-09-07T04:21:34.644Z,94160.00
2022-09-07T04:24:01.734Z,94160.00
2022-09-07T04:26:32.302Z,94158.00
2022-09-07T04:29:03.782Z,94153.00
2022-09-07T04:31:33.548Z,94148.00
2022-09-07T04:34:00.541Z,94150.00
2022-09-07T04:36:28.202Z,94143.00
2022-09-07T04:39:03.343Z,94139.00
2022-09-07T04:41:32.618Z,94133.00
2022-09-07T04:44:02.948Z,94131.00
2022-09-07T04:46:36.567Z,94120.00
2022-09-07T04:49:11.839Z,94129.00
2022-09-07T04:51:44.961Z,94134.00
2022-09-07T04:54:14.301Z,94138.00
2022-09-07T04:56:43.830Z,94129.00
2022-09-07T04:59:13.126Z,94136.00
2022-09-07T05:01:44.579Z,94137.00
2022-09-07T05:04:13.677Z,94137.00
2022-09-07T05:06:40.612Z,94140.00
2022-09-07T05:09:12.956Z,94134.00
2022-09-07T05:11:39.884Z,94142.00
2022-09-07T05:14:08.088Z,94141.00
2022-09-07T05:16:41.908Z,94141.00
2022-09-07T05:19:15.107Z,94151.00
2022-09-07T05:21:44.661Z,94143.00
2022-09-07T05:24:11.569Z,94138.00
2022-09-07T05:26:39.811Z,94140.00
2022-09-07T05:31:57.579Z,94154.00
2022-09-07T05:36:54.776Z,94149.00
2022-09-07T05:39:24.727Z,94146.00
2022-09-07T05:41:51.626Z,94146.00
2022-09-07T05:47:08.306Z,94138.00
2022-09-07T05:49:38.287Z,94148.00
2022-09-07T05:52:10.452Z,94157.00
2022-09-07T05:54:40.641Z,94151.00
2022-09-07T05:57:11.186Z,94153.00
2022-09-07T05:59:38.102Z,94147.00
2022-09-07T06:02:09.492Z,94146.00
2022-09-07T06:04:36.388Z,94151.00
2022-09-07T06:07:21.935Z,94162.00
2022-09-07T06:12:36.369Z,94151.00
2022-09-07T06:15:05.267Z,94155.00
2022-09-07T06:17:32.150Z,94147.00
2022-09-07T06:19:59.138Z,94165.00
2022-09-07T06:22:31.038Z,94156.00
2022-09-07T06:24:58.723Z,94150.00
2022-09-07T06:27:28.735Z,94150.00
2022-09-07T06:29:56.036Z,94146.00
2022-09-07T06:35:10.871Z,94146.00
2022-09-07T06:37:38.458Z,94149.00
2022-09-07T06:40:11.834Z,94144.00
2022-09-07T06:42:39.306Z,94170.00
2022-09-07T06:45:11.288Z,94171.00
2022-09-07T06:47:41.322Z,94173.00
2022-09-07T06:50:09.439Z,94171.00
2022-09-07T06:55:27.954Z,94173.00
2022-09-07T06:57:57.484Z,94173.00
2022-09-07T07:00:24.652Z,94171.00
2022-09-07T07:02:56.488Z,94179.00
2022-09-07T07:05:25.712Z,94171.00
2022-09-07T07:07:52.708Z,94177.00
2022-09-07T07:10:24.331Z,94183.00
2022-09-07T07:12:56.659Z,94183.00
2022-09-07T07:15:27.384Z,94184.00
2022-09-07T07:18:00.311Z,94165.00
2022-09-07T07:20:35.282Z,94173.00
2022-09-07T07:23:02.732Z,94170.00
2022-09-07T07:25:29.822Z,94172.00
2022-09-07T07:27:57.105Z,94180.00
2022-09-07T07:30:24.945Z,94168.00
2022-09-07T07:32:54.653Z,94169.00
2022-09-07T07:35:23.314Z,94167.00
2022-09-07T07:40:43.055Z,94164.00
2022-09-07T07:43:15.340Z,94167.00
2022-09-07T07:48:21.431Z,94165.00
2022-09-07T07:51:11.825Z,94176.00
2022-09-07T07:53:52.920Z,94181.00
2022-09-07T07:56:19.977Z,94171.00
2022-09-07T07:58:48.084Z,94177.00
2022-09-07T08:01:17.551Z,94188.00
2022-09-07T08:03:47.242Z,94177.00
2022-09-07T08:06:20.008Z,94196.00
2022-09-07T08:08:51.481Z,94190.00
2022-09-07T08:11:25.859Z,94180.00
2022-09-07T08:13:54.818Z,94193.00
2022-09-07T08:16:24.352Z,94190.00
2022-09-07T08:18:51.411Z,94188.00
2022-09-07T08:21:18.293Z,94183.00
2022-09-07T08:23:45.265Z,94185.00
2022-09-07T08:26:12.330Z,94185.00
2022-09-07T08:28:41.949Z,94183.00
2022-09-07T08:31:15.735Z,94192.00
2022-09-07T08:33:45.868Z,94196.00
2022-09-07T08:36:19.579Z,94187.00
2022-09-07T08:38:47.776Z,94181.00
2022-09-07T08:41:54.787Z,94193.00
2022-09-07T08:44:22.589Z,94195.00
2022-09-07T08:47:03.644Z,94202.00
2022-09-07T08:49:36.320Z,94211.00
2022-09-07T08:52:12.734Z,94203.00
2022-09-07T08:54:49.748Z,94199.00
2022-09-07T08:57:27.786Z,94209.00
2022-09-07T09:00:14.388Z,94199.00
2022-09-07T09:02:44.350Z,94185.00
2022-09-07T09:05:25.744Z,94191.00
2022-09-07T09:08:22.757Z,94188.00
2022-09-07T09:11:10.922Z,94177.00
2022-09-07T09:13:49.542Z,94189.00
2022-09-07T09:16:38.138Z,94185.00
2022-09-07T09:19:41.460Z,94180.00
2022-09-07T09:22:22.051Z,94182.00
2022-09-07T09:25:16.711Z,94167.00
2022-09-07T09:27:43.688Z,94168.00
2022-09-07T09:30:21.422Z,94152.00
2022-09-07T09:32:52.798Z,94164.00
2022-09-07T09:35:51.217Z,94157.00
2022-09-07T09:38:40.740Z,94161.00
2022-09-07T09:41:15.882Z,94145.00
2022-09-07T09:43:54.453Z,94158.00
2022-09-07T09:46:40.148Z,94156.00
2022-09-07T09:49:26.158Z,94154.00
2022-09-07T09:54:52.568Z,94161.00
2022-09-07T09:59:04.718Z,94155.00
2022-09-07T10:01:21.029Z,94144.00
2022-09-07T10:06:20.876Z,94139.00
2022-09-07T10:09:00.422Z,94132.00
2022-09-07T10:14:42.884Z,94123.00
2022-09-07T10:17:27.605Z,94132.00
2022-09-07T10:20:02.444Z,94118.00
2022-09-07T10:22:37.668Z,94112.00
2022-09-07T10:25:44.274Z,94108.00
2022-09-07T10:28:16.413Z,94115.00
2022-09-07T10:31:15.102Z,94098.00
2022-09-07T10:37:06.808Z,94105.00
2022-09-07T10:39:40.398Z,94107.00
2022-09-07T10:42:25.341Z,94105.00
2022-09-07T10:45:19.812Z,94102.00
2022-09-07T10:47:52.135Z,94097.00
2022-09-07T10:50:35.613Z,94095.00
2022-09-07T10:53:44.905Z,94097.00
2022-09-07T10:56:26.043Z,94090.00
2022-09-07T11:00:07.562Z,94082.00
2022-09-07T11:05:48.679Z,94072.00
2022-09-07T11:12:04.333Z,94072.00
2022-09-07T11:14:49.689Z,94066.00
2022-09-07T11:17:24.051Z,94067.00
2022-09-07T11:20:03.454Z,94068.00
2022-09-07T11:22:38.903Z,94064.00
2022-09-07T11:25:32.280Z,94052.00
2022-09-07T11:28:14.551Z,94052.00
2022-09-07T11:30:54.555Z,94046.00
2022-09-07T11:33:34.145Z,94052.00
2022-09-07T11:36:12.037Z,94049.00
2022-09-07T11:39:02.243Z,94043.00
2022-09-07T11:41:34.260Z,94037.00
2022-09-07T11:44:14.957Z,94054.00
2022-09-07T11:47:02.319Z,94039.00
2022-09-07T11:49:30.784Z,94046.00
2022-09-07T11:52:36.378Z,94039.00
2022-09-07T11:55:11.738Z,94041.00
2022-09-07T11:58:22.870Z,94049.00
2022-09-07T12:01:15.746Z,94049.00
2022-09-07T12:03:53.800Z,94051.00
2022-09-07T12:06:58.359Z,94040.00
2022-09-07T12:10:23.421Z,94040.00
2022-09-07T12:12:59.143Z,94032.00
2022-09-07T12:15:56.072Z,94045.00
2022-09-07T12:18:44.703Z,94044.00
2022-09-07T12:21:39.539Z,94036.00
2022-09-07T12:24:32.480Z,94046.00
2022-09-07T12:27:09.918Z,94037.00
2022-09-07T12:29:45.225Z,94039.00
2022-09-07T12:34:59.947Z,94026.00
2022-09-07T12:37:26.764Z,94022.00
2022-09-07T12:40:30.523Z,94018.00
2022-09-07T12:43:48.017Z,94020.00
2022-09-07T12:46:34.898Z,94012.00
2022-09-07T12:49:16.405Z,94009.00
2022-09-07T12:52:28.727Z,94008.00
2022-09-07T12:55:29.151Z,94010.00
2022-09-07T12:58:23.090Z,94016.00
2022-09-07T13:01:17.930Z,94013.00
2022-09-07T13:04:28.646Z,94008.00
2022-09-07T13:07:26.757Z,93999.00
2022-09-07T13:10:03.901Z,93994.00
2022-09-07T13:12:57.207Z,93980.00
2022-09-07T13:15:42.630Z,93974.00
2022-09-07T13:18:32.265Z,93972.00
2022-09-07T13:21:08.324Z,93968.00
2022-09-07T13:23:40.314Z,93961.00
2022-09-07T13:26:11.902Z,93961.00
2022-09-07T13:29:10.916Z,93951.00
2022-09-07T13:32:00.188Z,93951.00
2022-09-07T13:34:53.280Z,93959.00
2022-09-07T13:37:25.242Z,93945.00
2022-09-07T13:39:55.852Z,93950.00
2022-09-07T13:42:31.889Z,93948.00
2022-09-07T13:45:05.868Z,93946.00
2022-09-07T13:48:02.381Z,93943.00
2022-09-07T13:50:43.813Z,93945.00
2022-09-07T13:53:54.529Z,93943.00
2022-09-07T13:56:49.085Z,93942.00
2022-09-07T13:59:23.753Z,93939.00
2022-09-07T14:01:51.510Z,93935.00
2022-09-07T14:04:44.454Z,93944.00
2022-09-07T14:07:17.466Z,93935.00
2022-09-07T14:09:44.336Z,93937.00
2022-09-07T14:12:16.024Z,93944.00
2022-09-07T14:14:42.917Z,93936.00
2022-09-07T14:17:16.749Z,93925.00
2022-09-07T14:19:52.248Z,93937.00
2022-09-07T14:22:33.691Z,93936.00
2022-09-07T14:25:04.782Z,93932.00
2022-09-07T14:27:41.915Z,93934.00
2022-09-07T14:30:24.028Z,93931.00
2022-09-07T14:33:01.079Z,93914.00
2022-09-07T14:35:39.912Z,93921.00
2022-09-07T14:41:23.978Z,93924.00
2022-09-07T14:43:57.721Z,93912.00
2022-09-07T14:46:35.796Z,93920.00
2022-09-07T14:49:21.673Z,93919.00
2022-09-07T14:51:49.572Z,93924.00
2022-09-07T14:54:29.273Z,93909.00
2022-09-07T14:57:03.337Z,93911.00
2022-09-07T14:59:45.910Z,93899.00
2022-09-07T15:02:18.950Z,93897.00
2022-09-07T15:04:53.059Z,93898.00
2022-09-07T15:07:40.891Z,93894.00
2022-09-07T15:10:23.535Z,93895.00
2022-09-07T15:13:03.937Z,93901.00
2022-09-07T15:15:33.332Z,93899.00
2022-09-07T15:18:38.968Z,93890.00
2022-09-07T15:21:09.173Z,93887.00
2022-09-07T15:23:39.128Z,93884.00
2022-09-07T15:26:09.313Z,93874.00
2022-09-07T15:31:59.264Z,93862.00
2022-09-07T15:34:20.723Z,93864.00
2022-09-07T15:36:52.205Z,93856.00
2022-09-07T15:39:20.513Z,93860.00
2022-09-07T15:41:47.963Z,93850.00
2022-09-07T15:44:25.227Z,93849.00
2022-09-07T15:49:47.389Z,93827.00
2022-09-07T15:52:19.675Z,93834.00
2022-09-07T15:54:46.665Z,93839.00
2022-09-07T16:00:05.215Z,93841.00
2022-09-07T16:05:23.240Z,93823.00
2022-09-07T16:10:39.811Z,93830.00
2022-09-07T16:13:11.415Z,93828.00
2022-09-07T16:15:49.777Z,93837.00
2022-09-07T16:18:18.231Z,93830.00
2022-09-07T16:20:52.469Z,93827.00
2022-09-07T16:23:19.807Z,93832.00
2022-09-07T16:26:04.183Z,93831.00
2022-09-07T16:28:34.200Z,93835.00
2022-09-07T16:31:11.275Z,93841.00
2022-09-07T16:33:38.175Z,93841.00
2022-09-07T16:36:16.003Z,93846.00
2022-09-07T16:38:45.936Z,93844.00
2022-09-07T16:41:31.667Z,93847.00
2022-09-07T16:43:59.374Z,93847.00
2022-09-07T16:46:30.680Z,93846.00
2022-09-07T16:49:02.191Z,93840.00
2022-09-07T16:51:33.765Z,93825.00
2022-09-07T16:54:00.825Z,93819.00
2022-09-07T16:56:32.265Z,93825.00
2022-09-07T16:59:06.265Z,93828.00
2022-09-07T17:01:36.411Z,93834.00
2022-09-07T17:04:11.481Z,93826.00
2022-09-07T17:06:39.867Z,93834.00
2022-09-07T17:09:07.921Z,93827.00
2022-09-07T17:11:38.929Z,93825.00
2022-09-07T17:14:08.702Z,93829.00
2022-09-07T17:16:40.910Z,93826.00
2022-09-07T17:21:59.884Z,93837.00
2022-09-07T17:24:32.493Z,93835.00
2022-09-07T17:27:00.322Z,93834.00
2022-09-07T17:29:30.487Z,93832.00
2022-09-07T17:34:47.251Z,93831.00
2022-09-07T17:37:14.145Z,93844.00
2022-09-07T17:39:41.092Z,93849.00
2022-09-07T17:42:08.044Z,93870.00
2022-09-07T17:44:38.039Z,93887.00
2022-09-07T17:47:05.866Z,93892.00
2022-09-07T17:49:32.755Z,93873.00
2022-09-07T17:52:02.204Z,93858.00
2022-09-07T17:54:31.875Z,93866.00
2022-09-07T17:56:58.811Z,93862.00
2022-09-07T18:02:15.126Z,93866.00
2022-09-07T18:04:44.527Z,93875.00
2022-09-07T18:07:11.487Z,93875.00
2022-09-07T18:09:38.437Z,93875.00
2022-09-07T18:12:08.098Z,93869.00
2022-09-07T18:14:35.012Z,93858.00
2022-09-07T18:17:02.017Z,93849.00
2022-09-07T18:19:28.917Z,93843.00
2022-09-07T18:21:55.731Z,93839.00
2022-09-07T18:24:24.475Z,93846.00
2022-09-07T18:26:55.782Z,93854.00
2022-09-07T18:29:32.416Z,93856.00
2022-09-07T18:32:08.746Z,93850.00
2022-09-07T18:34:38.486Z,93851.00
2022-09-07T18:37:06.025Z,93864.00
2022-09-07T18:39:35.138Z,93870.00
2022-09-07T18:42:02.099Z,93880.00
2022-09-07T18:47:27.662Z,93897.00
2022-09-07T18:49:56.133Z,93916.00
2022-09-07T18:55:10.376Z,93932.00
2022-09-07T18:57:39.704Z,93942.00
2022-09-07T19:00:11.301Z,93932.00
2022-09-07T19:02:41.392Z,93934.00
2022-09-07T19:07:59.445Z,93933.00
2022-09-07T19:10:31.192Z,93939.00
2022-09-07T19:13:02.643Z,93947.00
2022-09-07T19:15:31.605Z,93948.00
2022-09-07T19:18:01.119Z,93954.00
2022-09-07T19:20:29.255Z,93947.00
2022-09-07T19:22:58.924Z,93943.00
2022-09-07T19:25:25.916Z,93928.00
2022-09-07T19:27:59.921Z,93914.00
2022-09-07T19:30:28.066Z,93909.00
2022-09-07T19:33:00.728Z,93908.00
2022-09-07T19:35:30.880Z,93898.00
2022-09-07T19:37:57.995Z,93901.00
2022-09-07T19:40:24.932Z,93892.00
2022-09-07T19:42:56.569Z,93902.00
2022-09-07T19:45:25.940Z,93890.00
2022-09-07T19:47:52.787Z,93881.00
2022-09-07T19:50:22.340Z,93876.00
2022-09-07T19:52:49.633Z,93876.00
2022-09-07T19:55:17.180Z,93884.00
2022-09-07T19:57:51.311Z,93871.00
2022-09-07T20:00:18.371Z,93870.00
2022-09-07T20:02:50.169Z,93860.00
2022-09-07T20:05:18.659Z,93854.00
2022-09-07T20:07:47.855Z,93852.00
2022-09-07T20:10:14.967Z,93848.00
2022-09-07T20:12:44.331Z,93865.00
2022-09-07T20:15:16.180Z,93867.00
2022-09-07T20:17:43.017Z,93870.00
2022-09-07T20:20:10.314Z,93872.00
2022-09-07T20:22:37.157Z,93865.00
2022-09-07T20:25:12.987Z,93872.00
2022-09-07T20:27:40.491Z,93872.00
2022-09-07T20:30:08.253Z,93869.00
2022-09-07T20:32:35.056Z,93865.00
2022-09-07T20:35:02.029Z,93861.00
2022-09-07T20:37:28.911Z,93865.00
2022-09-07T20:39:55.811Z,93874.00
2022-09-07T20:42:24.885Z,93881.00
2022-09-07T20:44:51.698Z,93889.00
2022-09-07T20:47:21.109Z,93891.00
2022-09-07T20:49:52.176Z,93899.00
2022-09-07T20:52:19.061Z,93909.00
2022-09-07T20:54:48.147Z,93920.00
2022-09-07T20:57:15.031Z,93924.00
2022-09-07T20:59:41.937Z,93916.00
2022-09-07T21:02:11.920Z,93920.00
2022-09-07T21:04:38.847Z,93911.00
2022-09-07T21:07:05.930Z,93915.00
2022-09-07T21:09:37.297Z,93907.00
2022-09-07T21:12:04.175Z,93891.00
2022-09-07T21:14:31.056Z,93891.00
2022-09-07T21:17:00.380Z,93887.00
2022-09-07T21:19:27.297Z,93891.00
2022-09-07T21:21:58.708Z,93877.00
2022-09-07T21:24:25.687Z,93872.00
2022-09-07T21:26:52.606Z,93857.00
2022-09-07T21:29:24.717Z,93847.00
2022-09-07T21:31:55.134Z,93829.00
2022-09-07T21:34:23.180Z,93820.00
2022-09-07T21:36:50.482Z,93814.00
2022-09-07T21:39:17.965Z,93805.00
2022-09-07T21:41:45.314Z,93792.00
2022-09-07T21:44:14.908Z,93787.00
2022-09-07T21:46:43.272Z,93775.00
2022-09-07T21:49:10.472Z,93755.00
2022-09-07T21:51:39.939Z,93747.00
2022-09-07T21:54:08.895Z,93742.00
2022-09-07T21:56:43.151Z,93740.00
2022-09-07T21:59:15.398Z,93744.00
2022-09-07T22:01:44.806Z,93743.00
2022-09-07T22:04:14.707Z,93756.00
2022-09-07T22:06:41.610Z,93763.00
2022-09-07T22:09:13.043Z,93770.00
2022-09-07T22:11:45.900Z,93784.00
2022-09-07T22:14:15.931Z,93790.00
2022-09-07T22:16:44.896Z,93799.00
2022-09-07T22:19:11.788Z,93838.00
2022-09-07T22:21:38.654Z,93849.00
2022-09-07T22:24:08.045Z,93865.00
2022-09-07T22:26:40.067Z,93869.00
2022-09-07T22:29:08.936Z,93889.00
2022-09-07T22:31:38.198Z,93900.00
2022-09-07T22:34:10.195Z,93892.00
2022-09-07T22:36:43.651Z,93904.00
2022-09-07T22:39:17.423Z,93892.00
2022-09-07T22:41:46.147Z,93885.00
2022-09-07T22:44:19.850Z,93875.00
2022-09-07T22:46:47.636Z,93859.00
2022-09-07T22:49:17.774Z,93859.00
2022-09-07T22:51:47.172Z,93843.00
2022-09-07T22:54:14.242Z,93826.00
2022-09-07T22:56:41.350Z,93815.00
2022-09-07T22:59:11.774Z,93805.00
2022-09-07T23:01:39.270Z,93785.00
2022-09-07T23:04:10.193Z,93771.00
2022-09-07T23:06:40.438Z,93754.00
2022-09-07T23:09:17.390Z,93718.00
2022-09-07T23:11:45.918Z,93720.00
2022-09-07T23:14:16.836Z,93737.00
2022-09-07T23:16:44.750Z,93733.00
2022-09-07T23:19:14.845Z,93723.00
2022-09-07T23:21:42.935Z,93734.00
2022-09-07T23:24:17.252Z,93730.00
2022-09-07T23:26:44.601Z,93723.00
2022-09-07T23:29:18.058Z,93715.00
2022-09-07T23:31:48.198Z,93704.00
2022-09-07T23:34:15.199Z,93707.00
2022-09-07T23:36:44.401Z,93702.00
2022-09-07T23:39:14.507Z,93701.00
2022-09-07T23:41:43.803Z,93708.00
2022-09-07T23:44:10.973Z,93716.00
2022-09-07T23:46:37.890Z,93720.00
2022-09-07T23:49:05.361Z,93733.00
2022-09-07T23:51:32.258Z,93736.00
2022-09-07T23:53:59.323Z,93741.00
2022-09-07T23:56:26.271Z,93735.00
2022-09-07T23:58:56.173Z,93732.00
